createdAt,value
2023-05-10T00:01:24.202Z,6.12
2023-05-10T00:04:40.386Z,6.11
2023-05-10T00:07:56.618Z,6.06
2023-05-10T00:11:13.135Z,5.83
2023-05-10T00:14:30.758Z,5.86
2023-05-10T00:17:47.052Z,5.94
2023-05-10T00:21:03.324Z,6.11
2023-05-10T00:24:19.580Z,6.11
2023-05-10T00:27:35.922Z,6.04
2023-05-10T00:30:52.173Z,6.01
2023-05-10T00:34:08.469Z,5.86
2023-05-10T00:37:24.732Z,5.82
2023-05-10T00:40:42.153Z,5.76
2023-05-10T00:44:00.144Z,5.86
2023-05-10T00:47:17.279Z,6.04
2023-05-10T00:50:34.311Z,6.07
2023-05-10T00:53:53.278Z,5.95
2023-05-10T00:57:09.831Z,5.81
2023-05-10T01:00:28.555Z,5.64
2023-05-10T01:03:45.008Z,5.54
2023-05-10T01:07:01.887Z,5.38
2023-05-10T01:10:20.362Z,5.46
2023-05-10T01:13:42.784Z,5.38
2023-05-10T01:17:01.569Z,5.29
2023-05-10T01:20:21.666Z,5.22
2023-05-10T01:23:55.371Z,5.13
2023-05-10T01:27:43.405Z,4.97
2023-05-10T01:31:33.250Z,5.00
2023-05-10T01:34:55.196Z,4.91
2023-05-10T01:38:18.918Z,4.96
2023-05-10T01:41:43.602Z,4.80
2023-05-10T01:45:05.417Z,4.81
2023-05-10T01:48:23.833Z,4.82
2023-05-10T01:51:48.732Z,4.75
2023-05-10T01:55:11.756Z,4.67
2023-05-10T01:58:34.387Z,4.48
2023-05-10T02:01:51.854Z,4.52
2023-05-10T02:05:08.836Z,4.57
2023-05-10T02:08:26.570Z,4.52
2023-05-10T02:11:43.681Z,4.42
2023-05-10T02:15:02.088Z,4.37
2023-05-10T02:18:21.760Z,4.42
2023-05-10T02:21:39.392Z,4.42
2023-05-10T02:24:57.615Z,4.43
2023-05-10T02:28:16.210Z,4.33
2023-05-10T02:31:33.726Z,4.19
2023-05-10T02:34:53.759Z,4.02
2023-05-10T02:38:11.409Z,3.98
2023-05-10T02:41:33.801Z,3.85
2023-05-10T02:44:54.066Z,4.02
2023-05-10T02:48:10.518Z,4.03
2023-05-10T02:51:28.564Z,3.95
2023-05-10T02:54:50.973Z,3.92
2023-05-10T02:58:09.692Z,3.95
2023-05-10T03:01:26.118Z,4.01
2023-05-10T03:04:42.485Z,3.99
2023-05-10T03:07:59.595Z,3.80
2023-05-10T03:11:38.472Z,3.87
2023-05-10T03:15:03.293Z,3.93
2023-05-10T03:18:25.326Z,4.00
2023-05-10T03:21:43.923Z,4.08
2023-05-10T03:25:03.010Z,4.21
2023-05-10T03:28:20.542Z,4.41
2023-05-10T03:31:37.173Z,4.42
2023-05-10T03:34:54.197Z,4.31
2023-05-10T03:38:11.776Z,4.41
2023-05-10T03:41:28.138Z,4.49
2023-05-10T03:44:48.568Z,4.54
2023-05-10T03:48:05.505Z,4.72
2023-05-10T03:51:22.318Z,4.85
2023-05-10T03:54:38.630Z,4.82
2023-05-10T03:57:56.168Z,4.80
2023-05-10T04:01:13.398Z,4.87
2023-05-10T04:04:29.738Z,4.94
2023-05-10T04:07:46.604Z,5.08
2023-05-10T04:11:03.259Z,5.25
2023-05-10T04:14:19.642Z,5.39
2023-05-10T04:17:36.043Z,5.55
2023-05-10T04:20:52.471Z,5.64
2023-05-10T04:24:08.812Z,5.77
2023-05-10T04:27:25.061Z,5.83
2023-05-10T04:30:42.375Z,5.94
2023-05-10T04:34:01.598Z,6.05
2023-05-10T04:37:17.797Z,6.13
2023-05-10T04:40:34.624Z,6.25
2023-05-10T04:43:51.376Z,6.28
2023-05-10T04:47:09.379Z,6.33
2023-05-10T04:50:26.383Z,6.43
2023-05-10T04:53:46.465Z,6.50
2023-05-10T04:57:00.901Z,6.63
2023-05-10T05:00:22.006Z,6.70
2023-05-10T05:03:38.321Z,6.80
2023-05-10T05:06:54.679Z,6.94
2023-05-10T05:10:11.753Z,7.13
2023-05-10T05:13:28.035Z,7.33
2023-05-10T05:16:44.581Z,7.50
2023-05-10T05:20:01.076Z,7.69
2023-05-10T05:23:17.539Z,7.90
2023-05-10T05:26:35.125Z,8.12
2023-05-10T05:29:51.390Z,8.26
2023-05-10T05:33:08.277Z,8.46
2023-05-10T05:36:24.774Z,8.68
2023-05-10T05:39:45.469Z,8.87
2023-05-10T05:43:01.553Z,9.06
2023-05-10T05:46:17.817Z,9.25
2023-05-10T05:49:34.206Z,9.36
2023-05-10T05:52:50.519Z,9.59
2023-05-10T05:56:10.026Z,9.71
2023-05-10T05:59:24.014Z,9.88
2023-05-10T06:02:40.185Z,10.07
2023-05-10T06:05:56.763Z,10.15
2023-05-10T06:09:13.216Z,10.24
2023-05-10T06:12:29.549Z,10.41
2023-05-10T06:15:45.792Z,10.56
2023-05-10T06:19:02.305Z,10.64
2023-05-10T06:22:18.806Z,10.86
2023-05-10T06:25:44.237Z,10.98
2023-05-10T06:29:01.988Z,11.17
2023-05-10T06:32:19.428Z,11.26
2023-05-10T06:35:37.379Z,11.41
2023-05-10T06:38:53.836Z,11.70
2023-05-10T06:42:10.354Z,11.83
2023-05-10T06:45:26.746Z,11.91
2023-05-10T06:48:45.174Z,12.07
2023-05-10T06:52:10.640Z,12.08
2023-05-10T06:55:27.710Z,12.35
2023-05-10T06:58:44.348Z,12.49
2023-05-10T07:02:00.826Z,12.67
2023-05-10T07:05:21.993Z,12.76
2023-05-10T07:08:38.723Z,12.97
2023-05-10T07:11:55.258Z,13.03
2023-05-10T07:15:18.074Z,13.22
2023-05-10T07:18:36.039Z,13.37
2023-05-10T07:21:54.205Z,13.46
2023-05-10T07:25:10.864Z,13.81
2023-05-10T07:28:27.224Z,13.98
2023-05-10T07:31:43.846Z,14.04
2023-05-10T07:35:00.512Z,14.17
2023-05-10T07:38:17.456Z,14.32
2023-05-10T07:41:35.730Z,14.74
2023-05-10T07:44:55.038Z,15.24
2023-05-10T07:48:11.915Z,15.81
2023-05-10T07:51:30.186Z,16.34
2023-05-10T07:54:49.948Z,16.84
2023-05-10T07:58:06.551Z,17.26
2023-05-10T08:01:22.990Z,17.65
2023-05-10T08:04:39.573Z,18.14
2023-05-10T08:07:55.974Z,18.32
2023-05-10T08:11:12.376Z,18.75
2023-05-10T08:14:28.675Z,19.33
2023-05-10T08:17:45.226Z,19.60
2023-05-10T08:21:01.563Z,19.96
2023-05-10T08:24:20.653Z,20.34
2023-05-10T08:27:36.932Z,20.64
2023-05-10T08:30:53.396Z,20.81
2023-05-10T08:34:10.044Z,21.21
2023-05-10T08:37:28.600Z,21.62
2023-05-10T08:40:50.155Z,20.41
2023-05-10T08:44:09.308Z,21.40
2023-05-10T08:47:27.971Z,21.69
2023-05-10T08:50:48.154Z,21.95
2023-05-10T08:54:05.516Z,22.58
2023-05-10T08:57:22.273Z,22.14
2023-05-10T09:00:40.196Z,22.19
2023-05-10T09:03:57.526Z,21.83
2023-05-10T09:07:14.762Z,22.10
2023-05-10T09:10:32.040Z,22.13
2023-05-10T09:13:48.861Z,21.96
2023-05-10T09:17:05.454Z,21.75
2023-05-10T09:20:23.071Z,21.44
2023-05-10T09:23:39.406Z,21.32
2023-05-10T09:26:59.273Z,20.83
2023-05-10T09:30:20.203Z,21.06
2023-05-10T09:33:36.884Z,20.81
2023-05-10T09:37:06.325Z,20.87
2023-05-10T09:40:26.767Z,20.84
2023-05-10T09:43:48.807Z,20.79
2023-05-10T09:47:05.595Z,19.78
2023-05-10T09:50:22.722Z,19.77
2023-05-10T09:53:38.964Z,19.34
2023-05-10T09:56:55.427Z,20.07
2023-05-10T10:00:15.245Z,20.22
2023-05-10T10:03:32.167Z,20.18
2023-05-10T10:06:49.194Z,20.33
2023-05-10T10:10:07.449Z,20.33
2023-05-10T10:13:23.877Z,20.51
2023-05-10T10:16:51.629Z,20.70
2023-05-10T10:19:59.689Z,20.25
2023-05-10T10:23:17.688Z,19.77
2023-05-10T10:26:35.146Z,20.16
2023-05-10T10:29:59.840Z,19.78
2023-05-10T10:33:57.351Z,19.91
2023-05-10T10:37:17.208Z,20.26
2023-05-10T10:40:39.985Z,20.15
2023-05-10T10:43:57.490Z,20.19
2023-05-10T10:47:33.528Z,19.97
2023-05-10T10:50:58.073Z,20.22
2023-05-10T10:54:23.179Z,20.25
2023-05-10T10:57:57.398Z,20.28
2023-05-10T11:01:25.276Z,20.13
2023-05-10T11:04:50.778Z,19.95
2023-05-10T11:08:10.428Z,20.15
2023-05-10T11:11:27.519Z,20.06
2023-05-10T11:14:43.929Z,20.17
2023-05-10T11:18:00.525Z,20.06
2023-05-10T11:21:18.724Z,19.69
2023-05-10T11:24:37.828Z,19.72
2023-05-10T11:27:55.859Z,19.61
2023-05-10T11:31:12.474Z,19.77
2023-05-10T11:34:45.321Z,19.57
2023-05-10T11:38:01.692Z,19.16
2023-05-10T11:41:19.582Z,18.81
2023-05-10T11:44:39.748Z,18.68
2023-05-10T11:47:58.939Z,18.51
2023-05-10T11:51:16.622Z,18.57
2023-05-10T11:54:32.882Z,18.56
2023-05-10T11:57:49.232Z,18.58
2023-05-10T12:01:06.247Z,18.29
2023-05-10T12:04:23.451Z,18.19
2023-05-10T12:07:40.167Z,18.28
2023-05-10T12:10:56.752Z,18.13
2023-05-10T12:14:15.080Z,18.17
2023-05-10T12:17:36.822Z,18.11
2023-05-10T12:20:53.474Z,18.13
2023-05-10T12:24:13.296Z,18.09
2023-05-10T12:27:41.893Z,18.02
2023-05-10T12:31:00.018Z,17.97
2023-05-10T12:34:18.541Z,18.05
2023-05-10T12:37:40.675Z,17.99
2023-05-10T12:40:57.084Z,18.02
2023-05-10T12:44:13.689Z,18.05
2023-05-10T12:47:30.093Z,18.05
2023-05-10T12:50:46.689Z,17.99
2023-05-10T12:54:03.178Z,18.03
2023-05-10T12:57:21.694Z,18.06
2023-05-10T13:00:39.888Z,18.05
2023-05-10T13:03:56.188Z,18.10
2023-05-10T13:07:12.761Z,17.96
2023-05-10T13:10:32.684Z,18.01
2023-05-10T13:13:49.792Z,17.91
2023-05-10T13:17:07.121Z,17.86
2023-05-10T13:20:25.179Z,17.82
2023-05-10T13:23:42.196Z,17.73
2023-05-10T13:26:58.509Z,17.62
2023-05-10T13:30:18.864Z,17.63
2023-05-10T13:33:35.563Z,17.63
2023-05-10T13:36:52.081Z,17.62
2023-05-10T13:40:19.485Z,17.80
2023-05-10T13:43:38.034Z,17.67
2023-05-10T13:46:57.170Z,17.81
2023-05-10T13:50:14.333Z,17.85
2023-05-10T13:53:30.540Z,17.82
2023-05-10T13:57:51.856Z,17.71
2023-05-10T14:01:29.419Z,17.74
2023-05-10T14:04:46.126Z,17.78
2023-05-10T14:08:05.608Z,17.75
2023-05-10T14:11:24.482Z,17.67
2023-05-10T14:14:41.443Z,17.66
2023-05-10T14:17:57.932Z,17.69
2023-05-10T14:21:14.818Z,17.73
2023-05-10T14:24:39.552Z,17.75
2023-05-10T14:28:02.342Z,17.74
2023-05-10T14:31:27.762Z,17.72
2023-05-10T14:34:45.715Z,17.72
2023-05-10T14:38:02.880Z,17.74
2023-05-10T14:41:25.362Z,17.72
2023-05-10T14:44:44.146Z,17.64
2023-05-10T14:48:01.209Z,17.68
2023-05-10T14:51:20.386Z,17.69
2023-05-10T14:55:14.898Z,17.80
2023-05-10T14:58:33.843Z,17.80
2023-05-10T15:01:50.774Z,17.79
2023-05-10T15:05:09.066Z,17.72
2023-05-10T15:08:26.488Z,17.75
2023-05-10T15:11:42.983Z,17.78
2023-05-10T15:15:01.692Z,17.83
2023-05-10T15:18:19.568Z,17.72
2023-05-10T15:21:37.847Z,17.73
2023-05-10T15:24:54.308Z,17.77
2023-05-10T15:28:13.546Z,17.78
2023-05-10T15:31:30.078Z,17.71
2023-05-10T15:34:46.561Z,17.69
2023-05-10T15:38:03.267Z,17.64
2023-05-10T15:41:19.912Z,17.62
2023-05-10T15:44:37.130Z,17.61
2023-05-10T15:47:53.578Z,17.59
2023-05-10T15:51:10.145Z,17.58
2023-05-10T15:54:26.532Z,17.58
2023-05-10T15:57:45.724Z,17.56
2023-05-10T16:01:02.242Z,17.54
2023-05-10T16:04:20.904Z,17.55
2023-05-10T16:07:43.766Z,17.52
2023-05-10T16:11:02.799Z,17.51
2023-05-10T16:14:19.459Z,17.53
2023-05-10T16:17:35.956Z,17.45
2023-05-10T16:20:52.967Z,17.42
2023-05-10T16:24:14.109Z,17.44
2023-05-10T16:27:31.192Z,17.44
2023-05-10T16:30:48.429Z,17.40
2023-05-10T16:34:06.059Z,17.37
2023-05-10T16:37:22.853Z,17.34
2023-05-10T16:40:42.554Z,17.33
2023-05-10T16:43:58.896Z,17.29
2023-05-10T16:47:15.998Z,17.26
2023-05-10T16:50:32.800Z,17.22
2023-05-10T16:53:49.132Z,17.20
2023-05-10T16:57:05.780Z,17.09
2023-05-10T17:00:24.810Z,17.11
2023-05-10T17:03:39.516Z,17.08
2023-05-10T17:06:56.853Z,17.05
2023-05-10T17:10:18.068Z,16.99
2023-05-10T17:13:34.716Z,16.95
2023-05-10T17:17:09.618Z,16.90
2023-05-10T17:20:27.124Z,16.85
2023-05-10T17:23:43.586Z,16.84
2023-05-10T17:27:01.503Z,16.81
2023-05-10T17:30:22.243Z,16.80
2023-05-10T17:33:39.784Z,16.74
2023-05-10T17:36:56.480Z,16.70
2023-05-10T17:40:15.482Z,16.65
2023-05-10T17:43:33.186Z,16.60
2023-05-10T17:46:57.941Z,16.53
2023-05-10T17:50:17.804Z,16.47
2023-05-10T17:53:36.101Z,16.40
2023-05-10T17:56:52.681Z,16.33
2023-05-10T18:00:10.312Z,16.29
2023-05-10T18:03:27.236Z,16.21
2023-05-10T18:06:47.036Z,16.12
2023-05-10T18:10:03.511Z,15.95
2023-05-10T18:13:20.195Z,15.84
2023-05-10T18:16:36.579Z,15.66
2023-05-10T18:19:53.002Z,15.51
2023-05-10T18:23:09.454Z,15.41
2023-05-10T18:26:25.922Z,15.32
2023-05-10T18:29:42.382Z,15.22
2023-05-10T18:32:59.406Z,15.12
2023-05-10T18:36:16.631Z,15.02
2023-05-10T18:42:47.903Z,14.83
2023-05-10T18:49:19.394Z,14.63
2023-05-10T18:52:36.906Z,14.56
2023-05-10T18:55:53.407Z,14.48
2023-05-10T18:59:09.989Z,14.34
2023-05-10T19:02:27.709Z,14.28
2023-05-10T19:05:44.448Z,14.17
2023-05-10T19:09:01.770Z,14.12
2023-05-10T19:12:18.250Z,14.01
2023-05-10T19:15:34.621Z,13.90
2023-05-10T19:18:51.548Z,13.80
2023-05-10T19:22:08.165Z,13.70
2023-05-10T19:25:26.755Z,13.61
2023-05-10T19:28:43.306Z,13.52
2023-05-10T19:32:01.487Z,13.44
2023-05-10T19:35:19.176Z,13.36
2023-05-10T19:38:43.458Z,13.26
2023-05-10T19:42:00.840Z,13.18
2023-05-10T19:45:19.936Z,13.11
2023-05-10T19:49:36.589Z,13.05
2023-05-10T19:57:07.218Z,12.90
2023-05-10T20:04:31.143Z,12.70
2023-05-10T20:08:01.225Z,12.58
2023-05-10T20:11:34.133Z,12.50
2023-05-10T20:18:38.126Z,12.36
2023-05-10T20:21:47.643Z,12.34
2023-05-10T20:25:06.890Z,12.29
2023-05-10T20:28:33.507Z,12.19
2023-05-10T20:32:02.279Z,12.14
2023-05-10T20:35:47.825Z,12.08
2023-05-10T20:39:07.940Z,12.01
2023-05-10T20:42:29.664Z,11.97
2023-05-10T20:46:25.558Z,11.91
2023-05-10T20:49:48.500Z,11.78
2023-05-10T20:53:09.488Z,11.76
2023-05-10T20:57:03.581Z,11.67
2023-05-10T21:03:46.975Z,11.49
2023-05-10T21:07:34.002Z,11.44
2023-05-10T21:10:57.456Z,11.30
2023-05-10T21:14:17.257Z,11.29
2023-05-10T21:17:38.293Z,11.21
2023-05-10T21:20:55.218Z,11.21
2023-05-10T21:24:13.308Z,11.18
2023-05-10T21:27:30.144Z,11.11
2023-05-10T21:30:47.256Z,11.07
2023-05-10T21:34:04.523Z,11.02
2023-05-10T21:37:23.628Z,10.94
2023-05-10T21:40:40.626Z,10.91
2023-05-10T21:43:57.466Z,10.83
2023-05-10T21:47:15.546Z,10.81
2023-05-10T21:50:35.559Z,10.79
2023-05-10T21:53:52.655Z,10.74
2023-05-10T21:57:09.974Z,10.73
2023-05-10T22:00:29.292Z,10.69
2023-05-10T22:03:48.186Z,10.63
2023-05-10T22:07:16.963Z,10.58
2023-05-10T22:10:39.279Z,10.56
2023-05-10T22:13:56.169Z,10.52
2023-05-10T22:17:13.224Z,10.45
2023-05-10T22:20:30.611Z,10.40
2023-05-10T22:23:47.754Z,10.40
2023-05-10T22:27:05.690Z,10.30
2023-05-10T22:30:23.362Z,10.28
2023-05-10T22:33:40.294Z,10.25
2023-05-10T22:36:57.589Z,10.21
2023-05-10T22:40:17.369Z,10.22
2023-05-10T22:43:34.316Z,10.16
2023-05-10T22:46:51.351Z,10.09
2023-05-10T22:50:09.057Z,10.04
2023-05-10T22:53:28.352Z,10.00
2023-05-10T22:56:47.412Z,9.94
2023-05-10T23:00:05.434Z,9.90
2023-05-10T23:03:23.582Z,9.90
2023-05-10T23:06:49.427Z,9.84
2023-05-10T23:10:06.692Z,9.82
2023-05-10T23:13:25.618Z,9.79
2023-05-10T23:16:43.107Z,9.79
2023-05-10T23:20:00.733Z,9.80
2023-05-10T23:23:22.315Z,9.70
2023-05-10T23:26:54.779Z,9.36
2023-05-10T23:30:26.042Z,9.22
2023-05-10T23:33:44.957Z,9.16
2023-05-10T23:37:03.849Z,9.22
2023-05-10T23:40:33.129Z,9.32
2023-05-10T23:43:51.185Z,9.35
2023-05-10T23:47:09.004Z,9.39
2023-05-10T23:50:29.164Z,9.45
2023-05-10T23:53:53.976Z,9.48
2023-05-10T23:57:11.581Z,9.38
